Time;durP1;ratioP1;P1;durP2;ratioP2;P2;SDS_P1;SDS_P2;PMS_P1;PMS_P2;Temp;Humidity;BMP_temperature;BMP_pressure;BME280_temperature;BME280_humidity;BME280_pressure;Samples;Min_cycle;Max_cycle;Signal;HPM_P1;HPM_P2
2022/05/02 00:02:10;;;;;;;;;;;;;;;8.27;65.43;102158.50;5093262;28;19919;-34
2022/05/02 00:04:35;;;;;;;;;;;;;;;8.24;64.88;102159.69;5092980;28;19919;-34
2022/05/02 00:07:00;;;;;;;;;;;;;;;8.20;65.32;102158.41;5092942;28;19912;-34
2022/05/02 00:09:25;;;;;;;;;;;;;;;8.17;65.04;102152.53;5093108;28;19912;-34
2022/05/02 00:11:51;;;;;;;;;;;;;;;8.16;64.88;102150.88;5094508;28;19919;-34
2022/05/02 00:14:16;;;;;;;;;;;;;;;8.14;65.68;102145.66;5097427;28;19923;-34
2022/05/02 00:16:41;;;;;;;;;;;;;;;8.09;66.16;102147.22;5097845;28;20368;-34
2022/05/02 00:19:06;;;;;;;;;;;;;;;8.11;65.16;102154.13;5097110;28;20244;-34
2022/05/02 00:21:32;;;;;;;;;;;;;;;8.08;65.48;102149.09;5097558;28;19911;-34
2022/05/02 00:23:57;;;;;;;;;;;;;;;8.06;65.39;102144.91;5078362;28;19912;-34
2022/05/02 00:26:22;;;;;;;;;;;;;;;8.04;65.55;102147.78;5096946;28;20031;-34
2022/05/02 00:28:47;;;;;;;;;;;;;;;8.01;65.76;102137.38;5097486;28;20018;-34
2022/05/02 00:31:12;;;;;;;;;;;;;;;7.98;65.75;102138.56;5097559;28;19934;-34
2022/05/02 00:33:38;;;;;;;;;;;;;;;7.96;65.93;102135.22;5097308;28;20427;-34
2022/05/02 00:36:03;;;;;;;;;;;;;;;7.93;66.15;102135.59;5096785;28;19920;-34
2022/05/02 00:38:28;;;;;;;;;;;;;;;7.90;65.81;102135.94;5096623;28;19912;-34
2022/05/02 00:40:54;;;;;;;;;;;;;;;7.90;65.69;102137.78;5096751;28;20317;-34
2022/05/02 00:43:19;;;;;;;;;;;;;;;7.88;66.42;102138.00;5096533;28;19944;-34
2022/05/02 00:45:45;;;;;;;;;;;;;;;7.88;66.48;102134.47;5096929;28;20332;-34
2022/05/02 00:48:10;;;;;;;;;;;;;;;7.87;65.48;102130.09;5096277;28;20284;-34
2022/05/02 00:50:37;;;;;;;;;;;;;;;7.86;65.82;102133.81;5078276;28;20294;-34
2022/05/02 00:53:04;;;;;;;;;;;;;;;7.86;65.94;102134.66;5096539;28;20360;-34
2022/05/02 00:55:30;;;;;;;;;;;;;;;7.87;65.74;102133.63;5096931;28;19964;-34
2022/05/02 00:57:56;;;;;;;;;;;;;;;7.86;66.29;102121.19;5096310;28;19919;-34
2022/05/02 01:00:21;;;;;;;;;;;;;;;7.84;66.17;102128.59;5096860;28;19912;-34
2022/05/02 01:02:46;;;;;;;;;;;;;;;7.83;66.46;102126.09;5096201;28;20014;-34
2022/05/02 01:05:11;;;;;;;;;;;;;;;7.79;66.30;102131.00;5096472;28;20375;-34
2022/05/02 01:07:38;;;;;;;;;;;;;;;7.77;66.78;102124.13;5096247;28;19912;-34
2022/05/02 01:10:03;;;;;;;;;;;;;;;7.74;65.67;102122.63;5077906;28;19912;-34
2022/05/02 01:12:28;;;;;;;;;;;;;;;7.73;66.18;102126.34;5095958;28;19912;-34
2022/05/02 01:14:55;;;;;;;;;;;;;;;7.71;66.08;102126.53;5096577;28;19915;-34
2022/05/02 01:17:20;;;;;;;;;;;;;;;7.70;66.36;102121.31;5096265;28;19919;-34
2022/05/02 01:19:46;;;;;;;;;;;;;;;7.66;66.35;102128.94;5095921;28;20006;-34
2022/05/02 01:22:12;;;;;;;;;;;;;;;7.65;66.59;102123.69;5096000;28;19918;-34
2022/05/02 01:24:38;;;;;;;;;;;;;;;7.62;67.36;102127.59;5094478;28;19920;-34
2022/05/02 01:27:04;;;;;;;;;;;;;;;7.57;67.41;102113.84;5095776;28;19916;-34
2022/05/02 01:29:31;;;;;;;;;;;;;;;7.53;66.83;102117.09;5095552;28;20410;-34
2022/05/02 01:31:56;;;;;;;;;;;;;;;7.48;67.30;102117.63;5095631;28;20360;-34
2022/05/02 01:34:21;;;;;;;;;;;;;;;7.44;66.99;102121.69;5095696;28;20003;-34
2022/05/02 01:36:47;;;;;;;;;;;;;;;7.40;67.04;102120.34;5078150;28;19973;-34
2022/05/02 01:39:12;;;;;;;;;;;;;;;7.37;67.14;102118.88;5076800;28;19912;-34
2022/05/02 01:41:38;;;;;;;;;;;;;;;7.35;67.61;102115.50;5096282;28;19948;-34
2022/05/02 01:44:03;;;;;;;;;;;;;;;7.36;67.26;102119.88;5095618;28;19912;-34
2022/05/02 01:46:28;;;;;;;;;;;;;;;7.35;67.48;102114.69;5077404;28;19955;-34
2022/05/02 01:48:54;;;;;;;;;;;;;;;7.30;67.39;102112.53;5095634;28;19915;-34
2022/05/02 01:51:20;;;;;;;;;;;;;;;7.25;66.95;102117.59;5095342;28;19916;-34
2022/05/02 01:53:45;;;;;;;;;;;;;;;7.23;67.07;102112.41;5094907;28;19912;-34
2022/05/02 01:56:10;;;;;;;;;;;;;;;7.19;67.59;102105.69;5095585;28;20083;-34
2022/05/02 01:58:36;;;;;;;;;;;;;;;7.18;67.75;102108.56;5095246;28;19924;-34
2022/05/02 02:01:01;;;;;;;;;;;;;;;7.14;68.61;102112.63;5095385;28;19912;-34
2022/05/02 02:03:26;;;;;;;;;;;;;;;7.07;68.26;102109.78;5095244;28;19919;-34
2022/05/02 02:05:51;;;;;;;;;;;;;;;7.03;68.54;102103.13;5094990;28;19923;-34
2022/05/02 02:08:18;;;;;;;;;;;;;;;7.00;68.51;102105.31;5095047;28;19918;-34
2022/05/02 02:10:43;;;;;;;;;;;;;;;6.98;68.06;102102.81;5095073;28;20311;-34
2022/05/02 02:13:10;;;;;;;;;;;;;;;6.96;67.86;102108.34;5095120;28;19912;-34
2022/05/02 02:15:35;;;;;;;;;;;;;;;6.92;68.18;102104.31;5096076;28;20233;-34
2022/05/02 02:18:00;;;;;;;;;;;;;;;6.90;68.11;102101.00;5094820;28;19912;-34
2022/05/02 02:20:25;;;;;;;;;;;;;;;6.90;68.29;102106.38;5095114;28;19919;-34
2022/05/02 02:22:51;;;;;;;;;;;;;;;6.89;68.33;102110.09;5095025;28;19912;-34
2022/05/02 02:25:16;;;;;;;;;;;;;;;6.88;69.87;102111.09;5095060;28;19925;-34
2022/05/02 02:27:41;;;;;;;;;;;;;;;6.85;69.85;102108.75;5094683;28;19919;-34
2022/05/02 02:30:07;;;;;;;;;;;;;;;6.83;70.40;102104.53;5094344;28;19919;-34
2022/05/02 02:32:32;;;;;;;;;;;;;;;6.77;70.23;102103.41;5095250;28;19951;-34
2022/05/02 02:34:57;;;;;;;;;;;;;;;6.74;69.80;102109.16;5094948;28;20351;-34
2022/05/02 02:37:23;;;;;;;;;;;;;;;6.75;68.99;102104.59;5094983;28;20387;-34
2022/05/02 02:39:48;;;;;;;;;;;;;;;6.73;69.49;102099.38;5094062;28;19916;-34
2022/05/02 02:42:13;;;;;;;;;;;;;;;6.72;69.23;102098.53;5094401;28;19912;-34
2022/05/02 02:44:38;;;;;;;;;;;;;;;6.74;68.86;102102.94;5093886;28;20015;-34
2022/05/02 02:47:04;;;;;;;;;;;;;;;6.74;69.12;102095.69;5094533;28;20003;-34
2022/05/02 02:49:29;;;;;;;;;;;;;;;6.72;69.41;102095.84;5094188;28;19934;-34
2022/05/02 02:51:54;;;;;;;;;;;;;;;6.71;68.79;102091.50;5093948;28;19919;-34
2022/05/02 02:54:20;;;;;;;;;;;;;;;6.72;69.22;102089.66;5093844;28;19924;-34
2022/05/02 02:56:45;;;;;;;;;;;;;;;6.71;69.67;102087.97;5094448;28;19912;-34
2022/05/02 02:59:10;;;;;;;;;;;;;;;6.68;69.46;102083.78;5094000;28;19912;-34
2022/05/02 03:01:36;;;;;;;;;;;;;;;6.66;69.02;102082.28;5094371;28;19919;-34
2022/05/02 03:06:01;;;;;;;;;;;;;;;6.63;69.26;102079.94;5093831;28;20328;-34
2022/05/02 03:06:46;;;;;;;;;;;;;;;6.60;69.05;102077.63;5093590;28;20321;-34
2022/05/02 03:09:12;;;;;;;;;;;;;;;6.55;69.67;102075.47;5093900;28;19918;-34
2022/05/02 03:11:37;;;;;;;;;;;;;;;6.52;70.03;102085.72;5094226;28;20018;-34
2022/05/02 03:14:02;;;;;;;;;;;;;;;6.49;69.94;102078.84;5094051;28;19923;-34
2022/05/02 03:16:27;;;;;;;;;;;;;;;6.48;70.50;102076.31;5093830;28;19963;-34
2022/05/02 03:18:53;;;;;;;;;;;;;;;6.47;70.39;102080.03;5093766;28;19919;-34
2022/05/02 03:21:18;;;;;;;;;;;;;;;6.44;69.74;102081.19;5075828;28;19919;-34
2022/05/02 03:23:43;;;;;;;;;;;;;;;6.41;70.40;102074.31;5094155;28;19912;-34
2022/05/02 03:26:08;;;;;;;;;;;;;;;6.38;70.50;102069.28;5093989;28;19934;-34
2022/05/02 03:28:33;;;;;;;;;;;;;;;6.34;70.20;102081.38;5093606;28;19912;-34
2022/05/02 03:30:59;;;;;;;;;;;;;;;6.33;70.05;102078.88;5093588;28;20014;-34
2022/05/02 03:33:24;;;;;;;;;;;;;;;6.30;70.38;102072.03;5093613;28;20042;-34
2022/05/02 03:35:49;;;;;;;;;;;;;;;6.30;70.41;102073.88;5093313;28;20273;-34
2022/05/02 03:38:14;;;;;;;;;;;;;;;6.30;71.24;102069.34;5093473;28;19912;-34
2022/05/02 03:40:40;;;;;;;;;;;;;;;6.30;70.55;102072.03;5093774;28;20314;-34
2022/05/02 03:43:05;;;;;;;;;;;;;;;6.31;70.85;102073.69;5074840;28;20331;-34
2022/05/02 03:45:30;;;;;;;;;;;;;;;6.33;70.64;102065.44;5093936;28;19955;-34
2022/05/02 03:47:56;;;;;;;;;;;;;;;6.30;70.67;102072.03;5093090;28;19951;-34
2022/05/02 03:50:21;;;;;;;;;;;;;;;6.29;70.76;102078.38;5094088;28;19912;-34
2022/05/02 03:52:46;;;;;;;;;;;;;;;6.29;71.19;102074.88;5094115;28;20355;-34
2022/05/02 03:55:11;;;;;;;;;;;;;;;6.28;71.00;102071.34;5093254;28;19960;-34
2022/05/02 03:57:37;;;;;;;;;;;;;;;6.27;70.71;102074.22;5093522;28;19912;-34
2022/05/02 04:00:02;;;;;;;;;;;;;;;6.23;70.66;102068.34;5093277;28;19923;-34
2022/05/02 04:02:28;;;;;;;;;;;;;;;6.22;70.54;102071.19;5093313;28;19916;-34
2022/05/02 04:04:53;;;;;;;;;;;;;;;6.17;71.17;102077.94;5093982;28;19912;-34
2022/05/02 04:07:18;;;;;;;;;;;;;;;6.11;71.25;102072.41;5093333;28;19961;-34
2022/05/02 04:09:43;;;;;;;;;;;;;;;6.07;71.82;102074.59;5093406;28;19912;-34
2022/05/02 04:12:09;;;;;;;;;;;;;;;6.02;71.26;102076.13;5093261;28;20003;-34
2022/05/02 04:14:34;;;;;;;;;;;;;;;5.98;71.11;102080.16;5083341;28;20348;-34
2022/05/02 04:16:59;;;;;;;;;;;;;;;5.95;71.69;102089.38;5073234;28;19912;-34
2022/05/02 04:19:25;;;;;;;;;;;;;;;5.92;72.00;102076.31;5072613;28;19932;-34
2022/05/02 04:21:50;;;;;;;;;;;;;;;5.94;71.57;102082.34;5072646;28;20012;-34
2022/05/02 04:24:15;;;;;;;;;;;;;;;5.94;72.16;102077.78;5073026;28;19951;-34
2022/05/02 04:26:41;;;;;;;;;;;;;;;5.94;71.83;102076.97;5072790;28;19912;-34
2022/05/02 04:29:06;;;;;;;;;;;;;;;5.97;72.04;102075.81;5072885;28;19912;-34
2022/05/02 04:31:31;;;;;;;;;;;;;;;5.99;72.27;102079.13;5073101;28;19967;-34
2022/05/02 04:33:56;;;;;;;;;;;;;;;5.98;71.98;102072.94;5072718;28;20349;-34
2022/05/02 04:36:22;;;;;;;;;;;;;;;5.98;72.35;102074.78;5072600;28;19958;-34
2022/05/02 04:38:47;;;;;;;;;;;;;;;5.96;72.40;102071.44;5072819;28;19920;-34
2022/05/02 04:41:14;;;;;;;;;;;;;;;5.94;72.00;102067.06;5054728;28;19970;-34
2022/05/02 04:43:41;;;;;;;;;;;;;;;5.98;72.12;102077.47;5072514;28;20019;-34
2022/05/02 04:46:06;;;;;;;;;;;;;;;6.02;71.81;102068.91;5073073;28;19913;-34
2022/05/02 04:48:31;;;;;;;;;;;;;;;6.07;71.89;102069.22;5073041;28;19918;-34
2022/05/02 04:50:56;;;;;;;;;;;;;;;6.13;72.17;102065.84;5055256;28;20058;-34
2022/05/02 04:53:21;;;;;;;;;;;;;;;6.20;71.73;102068.69;5072989;28;20348;-34
2022/05/02 04:55:48;;;;;;;;;;;;;;;6.29;72.44;102075.69;5072533;28;19912;-34
2022/05/02 04:58:13;;;;;;;;;;;;;;;6.35;71.73;102072.34;5072559;28;19912;-34
2022/05/02 05:00:38;;;;;;;;;;;;;;;6.41;72.04;102074.31;5075655;28;20287;-34
2022/05/02 05:03:04;;;;;;;;;;;;;;;6.44;71.75;102081.19;5075943;28;19922;-34
2022/05/02 05:05:29;;;;;;;;;;;;;;;6.49;71.49;102081.53;5058452;28;19912;-34
2022/05/02 05:07:55;;;;;;;;;;;;;;;6.59;72.96;102075.94;5076111;28;20020;-34
2022/05/02 05:10:20;;;;;;;;;;;;;;;6.64;72.59;102082.47;5076888;28;19912;-34
2022/05/02 05:13:04;;;;;;;;;;;;;;;6.68;71.88;102080.25;5076280;28;19913;-34
2022/05/02 05:18:31;;;;;;;;;;;;;;;6.80;72.85;102078.88;5096171;28;19926;-34
2022/05/02 05:20:56;;;;;;;;;;;;;;;6.88;71.89;102083.34;5095865;28;20376;-34
2022/05/02 05:23:40;;;;;;;;;;;;;;;6.97;72.20;102079.59;5096797;28;19938;-34
2022/05/02 05:26:24;;;;;;;;;;;;;;;7.10;73.16;102087.94;5096278;28;20006;-34
2022/05/02 05:28:56;;;;;;;;;;;;;;;7.20;72.64;102080.47;5095897;28;19934;-34
2022/05/02 05:31:21;;;;;;;;;;;;;;;7.29;72.54;102080.41;5096107;28;19912;-34
2022/05/02 05:33:51;;;;;;;;;;;;;;;7.37;72.72;102085.72;5095660;28;19912;-34
2022/05/02 05:36:19;;;;;;;;;;;;;;;7.47;72.70;102075.56;5096448;28;19912;-34
2022/05/02 05:38:49;;;;;;;;;;;;;;;7.57;72.34;102075.34;5096061;28;19911;-33
2022/05/02 05:41:27;;;;;;;;;;;;;;;7.68;72.89;102077.59;5096389;28;20323;-33
2022/05/02 05:43:52;;;;;;;;;;;;;;;7.79;72.12;102074.44;5096005;28;20019;-33
2022/05/02 05:46:31;;;;;;;;;;;;;;;7.89;73.01;102079.56;5095596;28;20006;-33
2022/05/02 05:48:56;;;;;;;;;;;;;;;8.00;73.49;102077.28;5096066;28;20049;-33
2022/05/02 05:51:28;;;;;;;;;;;;;;;8.07;72.25;102079.22;5095466;28;20432;-33
2022/05/02 05:54:06;;;;;;;;;;;;;;;8.12;73.27;102084.91;5077424;28;19919;-33
2022/05/02 05:56:44;;;;;;;;;;;;;;;8.22;74.27;102077.38;5095827;28;19920;-33
2022/05/02 05:59:10;;;;;;;;;;;;;;;8.40;72.90;102085.97;5096093;28;19912;-33
2022/05/02 06:01:45;;;;;;;;;;;;;;;8.54;73.91;102087.00;5095260;28;19912;-33
2022/05/02 06:04:12;;;;;;;;;;;;;;;8.67;73.05;102087.13;5095711;28;19912;-33
2022/05/02 06:06:37;;;;;;;;;;;;;;;8.76;73.20;102082.47;5095678;28;19911;-34
2022/05/02 06:09:03;;;;;;;;;;;;;;;8.91;73.10;102083.28;5076408;28;19958;-33
2022/05/02 06:11:29;;;;;;;;;;;;;;;9.05;72.76;102086.97;5095164;28;20010;-33
2022/05/02 06:13:56;;;;;;;;;;;;;;;9.14;73.60;102079.59;5094398;28;19986;-33
2022/05/02 06:19:09;;;;;;;;;;;;;;;9.22;73.28;102074.94;5094570;28;19962;-34
2022/05/02 06:21:34;;;;;;;;;;;;;;;9.32;73.39;102084.53;5094695;28;19912;-33
2022/05/02 06:24:01;;;;;;;;;;;;;;;9.40;72.39;102082.56;5094586;28;19918;-33
2022/05/02 06:26:26;;;;;;;;;;;;;;;9.45;72.36;102082.81;5095508;28;19919;-33
2022/05/02 06:28:52;;;;;;;;;;;;;;;9.52;73.56;102085.59;5094373;28;20288;-33
2022/05/02 06:31:28;;;;;;;;;;;;;;;9.60;72.82;102085.44;5094257;28;19912;-33
2022/05/02 06:33:56;;;;;;;;;;;;;;;9.66;72.59;102082.00;5076657;28;19912;-34
2022/05/02 06:36:27;;;;;;;;;;;;;;;9.69;72.55;102081.56;5094921;28;19912;-33
2022/05/02 06:39:00;;;;;;;;;;;;;;;9.79;72.18;102083.94;5094307;28;20054;-33
2022/05/02 06:41:41;;;;;;;;;;;;;;;9.88;71.63;102085.47;5094635;28;20034;-34
2022/05/02 06:44:25;;;;;;;;;;;;;;;9.96;71.92;102082.63;5094446;28;19912;-34
2022/05/02 06:47:12;;;;;;;;;;;;;;;10.11;71.80;102085.22;5094039;28;19960;-33
2022/05/02 06:49:41;;;;;;;;;;;;;;;10.25;71.41;102078.09;5094771;28;20268;-34
2022/05/02 06:52:09;;;;;;;;;;;;;;;10.33;70.37;102080.59;5093444;28;19912;-33
2022/05/02 06:54:57;;;;;;;;;;;;;;;10.41;70.50;102077.75;5094164;28;19912;-33
2022/05/02 06:57:32;;;;;;;;;;;;;;;10.53;70.07;102081.53;5094828;28;19919;-33
2022/05/02 07:00:02;;;;;;;;;;;;;;;10.63;70.15;102078.47;5093666;28;19940;-34
2022/05/02 07:02:46;;;;;;;;;;;;;;;10.71;69.64;102075.59;5094427;28;20006;-33
2022/05/02 07:05:19;;;;;;;;;;;;;;;10.78;69.52;102073.78;5093883;28;19963;-34
2022/05/02 07:08:05;;;;;;;;;;;;;;;10.82;68.30;102069.59;5094332;28;19977;-34
2022/05/02 07:10:37;;;;;;;;;;;;;;;10.95;68.90;102074.22;5093984;28;20287;-34
2022/05/02 07:13:15;;;;;;;;;;;;;;;11.03;67.72;102076.75;5093776;28;20002;-34
2022/05/02 07:15:43;;;;;;;;;;;;;;;11.12;67.44;102074.69;5094431;28;19969;-34
2022/05/02 07:18:28;;;;;;;;;;;;;;;11.21;66.95;102073.44;5093704;28;20319;-33
2022/05/02 07:20:56;;;;;;;;;;;;;;;11.31;67.66;102073.88;5093632;28;20003;-34
2022/05/02 07:23:25;;;;;;;;;;;;;;;11.41;67.85;102068.06;5092952;28;19912;-34
2022/05/02 07:25:53;;;;;;;;;;;;;;;11.47;67.03;102069.16;5075793;28;19923;-34
2022/05/02 07:28:39;;;;;;;;;;;;;;;11.58;65.98;102079.34;5093593;28;19916;-34
2022/05/02 07:31:04;;;;;;;;;;;;;;;11.69;65.56;102070.59;5093366;28;19912;-34
2022/05/02 07:33:34;;;;;;;;;;;;;;;11.79;66.16;102067.47;5093628;28;20014;-34
2022/05/02 07:36:02;;;;;;;;;;;;;;;11.89;65.35;102065.19;5093631;28;19912;-34
2022/05/02 07:38:29;;;;;;;;;;;;;;;12.01;66.15;102062.69;5093169;28;19919;-34
2022/05/02 07:43:39;;;;;;;;;;;;;;;12.22;65.69;102070.56;5093563;28;19934;-34
2022/05/02 07:46:05;;;;;;;;;;;;;;;12.32;65.85;102070.97;5093892;28;19911;-34
2022/05/02 07:48:30;;;;;;;;;;;;;;;12.44;64.52;102070.28;5093923;28;19912;-33
2022/05/02 07:50:57;;;;;;;;;;;;;;;12.47;64.56;102068.00;5093381;28;20002;-34
2022/05/02 07:53:23;;;;;;;;;;;;;;;12.53;64.83;102074.44;5093541;28;20344;-34
2022/05/02 07:55:49;;;;;;;;;;;;;;;12.59;64.01;102073.56;5093618;28;19912;-34
2022/05/02 07:58:15;;;;;;;;;;;;;;;12.65;62.79;102071.91;5093338;28;20274;-33
2022/05/02 08:00:41;;;;;;;;;;;;;;;12.77;63.21;102073.72;5093208;28;19912;-33
2022/05/02 08:03:06;;;;;;;;;;;;;;;12.90;62.44;102067.41;5093450;28;20319;-34
2022/05/02 08:05:33;;;;;;;;;;;;;;;12.96;60.86;102066.53;5093375;28;19911;-34
2022/05/02 08:08:07;;;;;;;;;;;;;;;13.02;59.90;102068.38;5093124;28;19916;-34
2022/05/02 08:10:36;;;;;;;;;;;;;;;13.11;60.91;102069.78;5093227;28;20304;-34
2022/05/02 08:13:01;;;;;;;;;;;;;;;13.18;59.45;102074.38;5093327;28;20005;-34
2022/05/02 08:15:32;;;;;;;;;;;;;;;13.26;60.51;102066.78;5093004;28;19966;-34
2022/05/02 08:18:09;;;;;;;;;;;;;;;13.38;58.96;102065.06;5093410;28;19916;-34
2022/05/02 08:20:35;;;;;;;;;;;;;;;13.54;56.80;102066.38;5092871;28;20046;-34
2022/05/02 08:29:36;;;;;;;;;;;;;;;13.75;56.60;102069.78;5011037;28;19920;-34
2022/05/02 08:32:04;;;;;;;;;;;;;;;13.86;54.47;102060.91;5010587;28;19914;-34
2022/05/02 08:34:38;;;;;;;;;;;;;;;13.96;54.93;102068.53;5014074;28;20425;-34
2022/05/02 08:37:22;;;;;;;;;;;;;;;14.02;54.63;102070.38;5014782;28;20003;-34
2022/05/02 08:39:54;;;;;;;;;;;;;;;14.10;54.46;102072.78;5015147;28;20303;-34
2022/05/02 08:42:22;;;;;;;;;;;;;;;14.14;52.09;102065.84;5014916;28;20329;-34
2022/05/02 08:44:47;;;;;;;;;;;;;;;14.21;51.58;102065.81;5015060;28;20357;-34
2022/05/02 08:47:31;;;;;;;;;;;;;;;14.30;51.64;102068.00;5014725;28;19913;-34
2022/05/02 08:50:14;;;;;;;;;;;;;;;14.42;51.17;102065.34;5014828;28;19913;-33
2022/05/02 08:52:40;;;;;;;;;;;;;;;14.56;52.42;102064.16;5014862;28;20000;-33
2022/05/02 08:55:09;;;;;;;;;;;;;;;14.59;49.39;102051.97;5014236;28;20056;-33
2022/05/02 08:57:53;;;;;;;;;;;;;;;14.44;50.03;102049.59;5014700;28;20243;-33
2022/05/02 09:00:38;;;;;;;;;;;;;;;14.25;50.64;102067.00;5014135;28;19984;-34
2022/05/02 09:03:22;;;;;;;;;;;;;;;14.31;51.49;102058.78;5063520;28;19969;-34
2022/05/02 09:06:06;;;;;;;;;;;;;;;14.50;50.23;102051.47;5097032;28;20198;-34
2022/05/02 09:08:43;;;;;;;;;;;;;;;14.53;47.92;102047.44;5096347;28;19915;-34
2022/05/02 09:11:33;;;;;;;;;;;;;;;14.71;47.98;102043.88;5096244;28;19934;-34
2022/05/02 09:14:04;;;;;;;;;;;;;;;14.68;45.59;102054.16;5096988;28;19912;-34
2022/05/02 09:16:42;;;;;;;;;;;;;;;14.83;48.91;102040.13;5096793;28;19922;-34
2022/05/02 09:19:13;;;;;;;;;;;;;;;14.91;46.13;102036.28;5096413;28;20015;-34
2022/05/02 09:21:57;;;;;;;;;;;;;;;15.08;47.63;102044.59;5096483;28;19947;-34
2022/05/02 09:24:22;;;;;;;;;;;;;;;15.25;45.98;102044.78;5096510;28;19912;-34
2022/05/02 09:27:11;;;;;;;;;;;;;;;15.43;47.11;102039.28;5096049;28;19923;-34
2022/05/02 09:29:51;;;;;;;;;;;;;;;15.66;45.10;102033.91;5013718;28;19917;-34
2022/05/02 09:32:48;;;;;;;;;;;;;;;15.92;43.94;102034.47;5014446;28;19921;-34
2022/05/02 09:35:17;;;;;;;;;;;;;;;16.06;46.18;102030.44;5013913;28;19925;-34
2022/05/02 09:37:56;;;;;;;;;;;;;;;15.76;44.18;102032.44;5013588;28;19968;-34
2022/05/02 09:40:29;;;;;;;;;;;;;;;15.75;43.45;102031.63;5013656;28;19917;-34
2022/05/02 09:42:54;;;;;;;;;;;;;;;15.54;42.72;102033.00;5014043;28;19966;-34
2022/05/02 09:51:35;;;;;;;;;;;;;;;16.20;44.82;102023.66;4994089;28;19936;-34
2022/05/02 09:54:10;;;;;;;;;;;;;;;16.37;43.88;102022.91;4993769;28;19922;-34
2022/05/02 09:56:44;;;;;;;;;;;;;;;16.52;41.65;102017.75;4994174;28;19918;-34
2022/05/02 09:59:13;;;;;;;;;;;;;;;16.65;44.94;102020.22;4994150;28;19922;-34
2022/05/02 10:01:42;;;;;;;;;;;;;;;16.46;40.70;102016.00;4993825;28;20072;-34
2022/05/02 10:04:25;;;;;;;;;;;;;;;16.58;42.93;102016.78;4993532;28;20333;-34
2022/05/02 10:06:52;;;;;;;;;;;;;;;16.79;42.21;102025.41;5029243;28;19913;-34
2022/05/02 10:09:20;;;;;;;;;;;;;;;16.91;41.35;102018.00;5053405;28;20281;-34
2022/05/02 10:11:46;;;;;;;;;;;;;;;16.95;40.62;102013.72;5052999;28;20332;-34
2022/05/02 10:14:12;;;;;;;;;;;;;;;16.93;39.58;102010.38;5035132;28;19932;-34
2022/05/02 10:16:45;;;;;;;;;;;;;;;16.91;40.28;102012.53;5033449;28;19917;-34
2022/05/02 10:19:14;;;;;;;;;;;;;;;16.92;39.73;102015.00;5032942;28;19913;-34
2022/05/02 10:21:54;;;;;;;;;;;;;;;16.72;39.52;102015.47;5032443;28;19948;-34
2022/05/02 10:24:20;;;;;;;;;;;;;;;16.86;40.04;102020.63;5043485;28;19916;-34
2022/05/02 10:26:54;;;;;;;;;;;;;;;16.98;41.18;102005.00;5075390;28;20315;-34
2022/05/02 10:29:20;;;;;;;;;;;;;;;17.12;39.81;102011.81;5074625;28;19958;-34
2022/05/02 10:31:49;;;;;;;;;;;;;;;17.21;38.74;102013.06;5074849;28;19916;-34
2022/05/02 10:34:17;;;;;;;;;;;;;;;17.23;38.71;102005.47;5074784;28;20328;-34
2022/05/02 10:36:45;;;;;;;;;;;;;;;17.21;38.40;102002.13;5074466;28;19916;-34
2022/05/02 10:39:28;;;;;;;;;;;;;;;17.29;40.70;102005.56;5074579;28;20295;-34
2022/05/02 10:41:58;;;;;;;;;;;;;;;17.15;41.93;101991.38;5074718;28;20323;-34
2022/05/02 10:44:27;;;;;;;;;;;;;;;17.23;40.73;101990.97;5074199;28;19920;-34
2022/05/02 10:46:56;;;;;;;;;;;;;;;17.32;38.95;101986.72;5074705;28;19935;-34
2022/05/02 10:49:22;;;;;;;;;;;;;;;17.24;40.19;101990.72;5074142;28;19912;-34
2022/05/02 10:52:06;;;;;;;;;;;;;;;17.33;38.09;101982.13;5074680;28;19931;-34
2022/05/02 10:54:31;;;;;;;;;;;;;;;17.65;40.39;101988.63;5074063;28;19913;-34
2022/05/02 10:57:04;;;;;;;;;;;;;;;17.88;39.28;101984.06;5074815;28;19924;-34
2022/05/02 10:59:35;;;;;;;;;;;;;;;18.09;40.06;101986.00;5073905;28;19912;-34
2022/05/02 11:02:00;;;;;;;;;;;;;;;18.03;36.65;101973.34;5074408;28;20349;-34
2022/05/02 11:04:38;;;;;;;;;;;;;;;18.05;37.23;101978.53;5073498;28;19948;-34
2022/05/02 11:07:03;;;;;;;;;;;;;;;17.93;37.89;101965.00;5074433;28;19935;-34
2022/05/02 11:09:35;;;;;;;;;;;;;;;18.05;37.85;101968.41;5074079;28;20376;-34
2022/05/02 11:12:01;;;;;;;;;;;;;;;17.91;37.63;101973.47;5074080;28;19931;-34
2022/05/02 11:14:54;;;;;;;;;;;;;;;17.82;39.03;101966.75;5076871;28;20344;-34
2022/05/02 11:17:25;;;;;;;;;;;;;;;17.99;38.82;101970.28;5094254;28;19912;-34
2022/05/02 11:23:04;;;;;;;;;;;;;;;18.33;39.00;101963.84;5093968;28;19999;-34
2022/05/02 11:25:34;;;;;;;;;;;;;;;18.41;37.68;101963.41;5093837;28;19912;-34
2022/05/02 11:28:09;;;;;;;;;;;;;;;18.55;38.81;101959.19;5093892;28;19982;-34
2022/05/02 11:30:41;;;;;;;;;;;;;;;18.72;37.42;101948.97;5093465;28;20415;-34
2022/05/02 11:33:15;;;;;;;;;;;;;;;18.81;38.84;101946.59;5094807;28;19912;-34
2022/05/02 11:35:46;;;;;;;;;;;;;;;18.88;37.53;101941.72;5094041;28;20274;-34
2022/05/02 11:38:17;;;;;;;;;;;;;;;18.94;37.46;101943.44;5100372;28;19916;-34
2022/05/02 11:40:46;;;;;;;;;;;;;;;18.74;36.87;101941.34;5087357;28;19916;-34
2022/05/02 11:43:14;;;;;;;;;;;;;;;18.24;37.86;101944.31;5112538;28;19958;-34
2022/05/02 11:45:43;;;;;;;;;;;;;;;18.09;38.83;101942.22;5113404;28;19912;-34
2022/05/02 11:48:18;;;;;;;;;;;;;;;18.02;36.69;101947.88;5095919;28;19912;-34
2022/05/02 11:50:44;;;;;;;;;;;;;;;18.27;38.12;101944.63;5114650;28;19912;-34
2022/05/02 11:53:13;;;;;;;;;;;;;;;18.47;37.48;101938.56;5114171;28;19911;-34
2022/05/02 11:55:40;;;;;;;;;;;;;;;18.01;36.39;101940.75;5114212;28;19961;-34
2022/05/02 11:58:09;;;;;;;;;;;;;;;18.35;37.98;101939.75;5113829;28;19912;-34
2022/05/02 12:00:38;;;;;;;;;;;;;;;18.60;38.52;101931.84;5113708;28;19965;-33
2022/05/02 12:03:24;;;;;;;;;;;;;;;18.53;36.10;101933.94;5114278;28;19912;-34
2022/05/02 12:05:57;;;;;;;;;;;;;;;18.52;38.60;101929.56;5095512;28;19941;-34
2022/05/02 12:08:25;;;;;;;;;;;;;;;18.83;38.17;101940.84;5076997;28;19920;-35
2022/05/02 12:11:02;;;;;;;;;;;;;;;19.17;37.82;101934.03;5097056;28;20408;-35
2022/05/02 12:13:32;;;;;;;;;;;;;;;19.50;36.32;101929.31;5117862;28;19922;-34
2022/05/02 12:15:58;;;;;;;;;;;;;;;19.61;35.66;101924.75;5118006;28;19920;-35
2022/05/02 12:18:53;;;;;;;;;;;;;;;19.49;34.88;101928.50;5118384;28;19948;-35
2022/05/02 12:21:24;;;;;;;;;;;;;;;19.28;35.06;101933.03;5015419;28;20374;-34
2022/05/02 12:23:50;;;;;;;;;;;;;;;19.44;37.08;101923.00;5015082;28;19919;-34
2022/05/02 12:26:18;;;;;;;;;;;;;;;19.63;37.08;101926.16;5015503;28;20000;-35
2022/05/02 12:28:46;;;;;;;;;;;;;;;19.75;37.06;101917.69;5002763;28;20021;-35
2022/05/02 12:31:15;;;;;;;;;;;;;;;19.90;35.54;101920.53;4995154;28;19917;-35
2022/05/02 12:33:43;;;;;;;;;;;;;;;19.93;34.90;101924.66;4995260;28;20013;-35
2022/05/02 12:36:18;;;;;;;;;;;;;;;19.93;33.72;101916.44;4996016;28;20008;-34
2022/05/02 12:38:46;;;;;;;;;;;;;;;19.94;35.98;101915.31;5009863;28;19918;-34
2022/05/02 12:41:13;;;;;;;;;;;;;;;20.00;34.14;101917.00;5005889;28;19921;-34
2022/05/02 12:43:44;;;;;;;;;;;;;;;19.73;32.34;101923.47;5014855;28;20360;-35
2022/05/02 12:46:09;;;;;;;;;;;;;;;19.95;35.57;101925.22;5012990;28;19924;-35
2022/05/02 12:48:37;;;;;;;;;;;;;;;20.10;35.08;101922.53;5014741;28;19913;-35
2022/05/02 12:51:06;;;;;;;;;;;;;;;20.15;34.07;101922.53;5001312;28;19918;-35
2022/05/02 12:56:16;;;;;;;;;;;;;;;20.00;35.20;101906.84;5004368;28;19992;-35
2022/05/02 13:01:41;;;;;;;;;;;;;;;20.03;33.47;101903.56;5098240;28;20034;-35
2022/05/02 13:04:13;;;;;;;;;;;;;;;20.09;33.64;101904.41;5096963;28;20467;-35
2022/05/02 13:06:39;;;;;;;;;;;;;;;20.20;35.44;101905.25;5096966;28;19916;-35
2022/05/02 13:09:12;;;;;;;;;;;;;;;19.97;35.05;101890.91;5096454;28;20405;-34
2022/05/02 13:11:37;;;;;;;;;;;;;;;19.67;35.55;101888.88;5096420;28;19928;-35
2022/05/02 13:14:03;;;;;;;;;;;;;;;19.48;35.56;101888.44;5096111;28;19919;-35
2022/05/02 13:16:32;;;;;;;;;;;;;;;19.64;36.47;101880.34;5096980;28;19939;-35
2022/05/02 13:19:03;;;;;;;;;;;;;;;19.87;34.09;101879.06;5096625;28;20299;-35
2022/05/02 13:21:29;;;;;;;;;;;;;;;20.12;36.07;101881.09;5095568;28;19912;-35
2022/05/02 13:23:58;;;;;;;;;;;;;;;20.31;32.73;101896.78;5096060;28;19919;-35